Terminal Aerodrome Forecast
Issued by NWS Twin Cities, MN

Home | Current Version | Previous Version | Text Only | Print | Product List | Glossary On
Versions: 1 2 3 4 5 6 7 8 9 10 11 12 13 14 15 16
529
FTUS43 KMPX 231120
TAFEAU
TAF
KEAU 231120Z 2312/2412 00000KT 1/2SM FG VV002
     FM231330 09006KT P6SM SCT060 BKN250
     FM231800 14010KT 6SM -SHRA BR SCT030 BKN060
     FM232200 15012KT P6SM SCT050 BKN100
     FM240330 17011KT P6SM VCSH SCT030 BKN050
      TEMPO 2404/2406 2SM TSRA BKN020CB
     FM240630 19010KT P6SM SCT020 BKN080
     FM240900 23005KT P6SM SCT250=

USA.gov is the U.S. government's official web portal to all federal, state and local government web resources and services.